Time;durP1;ratioP1;P1;durP2;ratioP2;P2;SDS_P1;SDS_P2;PMS_P1;PMS_P2;Temp;Humidity;BMP_temperature;BMP_pressure;BME280_temperature;BME280_humidity;BME280_pressure;Samples;Min_cycle;Max_cycle;Signal;HPM_P1;HPM_P2
2021/04/21 00:01:35;;;;;;;0.00;0.00;;;;;;;;;;5056720;28;20207;-60
2021/04/21 00:04:05;;;;;;;2.13;2.00;;;;;;;;;;5058172;28;20187;-60
2021/04/21 00:06:32;;;;;;;1.20;1.13;;;;;;;;;;5057088;28;20773;-60
2021/04/21 00:08:59;;;;;;;0.73;0.73;;;;;;;;;;5057679;28;20190;-60
2021/04/21 00:11:26;;;;;;;2.17;1.30;;;;;;;;;;5059132;28;20989;-60
2021/04/21 00:13:53;;;;;;;0.10;0.10;;;;;;;;;;5059616;28;20222;-60
2021/04/21 00:16:20;;;;;;;0.93;0.60;;;;;;;;;;5058800;28;20186;-60
2021/04/21 00:18:47;;;;;;;1.17;1.17;;;;;;;;;;5062562;28;20555;-60
2021/04/21 00:21:13;;;;;;;0.10;0.10;;;;;;;;;;5063334;28;20231;-59
2021/04/21 00:23:42;;;;;;;0.50;0.30;;;;;;;;;;5061928;28;20740;-60
2021/04/21 00:26:15;;;;;;;0.87;0.87;;;;;;;;;;5042311;28;20234;-60
2021/04/21 00:28:42;;;;;;;0.20;0.20;;;;;;;;;;5058901;28;20183;-61
2021/04/21 00:31:10;;;;;;;1.13;0.40;;;;;;;;;;5060008;28;20190;-61
2021/04/21 00:33:38;;;;;;;5.73;1.03;;;;;;;;;;5060900;28;20191;-61
2021/04/21 00:36:05;;;;;;;0.20;0.20;;;;;;;;;;5059359;28;20212;-61
2021/04/21 00:38:33;;;;;;;0.83;0.83;;;;;;;;;;5061607;28;20197;-62
2021/04/21 00:41:18;;;;;;;0.10;0.10;;;;;;;;;;5058925;28;20238;-59
2021/04/21 00:43:46;;;;;;;5.00;0.47;;;;;;;;;;5051436;28;20194;-59
2021/04/21 00:46:22;;;;;;;0.10;0.10;;;;;;;;;;5048941;28;21056;-59
2021/04/21 00:48:51;;;;;;;0.10;0.10;;;;;;;;;;5053719;28;20182;-59
2021/04/21 00:51:23;;;;;;;0.17;0.17;;;;;;;;;;5058874;28;20802;-59
2021/04/21 00:53:52;;;;;;;5.63;1.60;;;;;;;;;;5038204;28;20194;-61
2021/04/21 00:56:28;;;;;;;0.07;0.07;;;;;;;;;;5057594;28;20589;-58
2021/04/21 00:59:21;;;;;;;0.00;0.00;;;;;;;;;;5060050;28;20273;-59
2021/04/21 01:01:48;;;;;;;0.10;0.10;;;;;;;;;;5018608;28;20693;-59
2021/04/21 01:04:15;;;;;;;0.00;0.00;;;;;;;;;;5056675;28;20401;-59
2021/04/21 01:06:47;;;;;;;5.63;1.87;;;;;;;;;;5058961;28;20225;-59
2021/04/21 01:09:16;;;;;;;1.73;1.30;;;;;;;;;;5039006;28;20778;-59
2021/04/21 01:11:48;;;;;;;3.20;1.70;;;;;;;;;;5065332;28;20214;-59
2021/04/21 01:14:16;;;;;;;0.53;0.53;;;;;;;;;;5062007;28;20191;-59
2021/04/21 01:16:43;;;;;;;4.67;1.77;;;;;;;;;;5060351;28;20325;-59
2021/04/21 01:19:32;;;;;;;3.40;0.57;;;;;;;;;;5057493;28;20176;-59
2021/04/21 01:22:09;;;;;;;0.10;0.10;;;;;;;;;;5057346;28;20249;-59
2021/04/21 01:24:48;;;;;;;1.60;0.33;;;;;;;;;;5058817;28;20205;-59
2021/04/21 01:27:19;;;;;;;0.00;0.00;;;;;;;;;;5056170;28;20193;-59
2021/04/21 01:29:47;;;;;;;0.10;0.10;;;;;;;;;;5048254;28;20180;-59
2021/04/21 01:32:20;;;;;;;0.20;0.20;;;;;;;;;;5056024;28;20588;-60
2021/04/21 01:34:48;;;;;;;0.80;0.70;;;;;;;;;;5053130;28;20759;-59
2021/04/21 01:37:17;;;;;;;0.10;0.10;;;;;;;;;;5047947;28;20256;-59
2021/04/21 01:39:45;;;;;;;0.10;0.07;;;;;;;;;;5052501;28;20186;-59
2021/04/21 01:42:14;;;;;;;0.30;0.30;;;;;;;;;;5051926;28;20969;-59
2021/04/21 01:44:45;;;;;;;0.23;0.23;;;;;;;;;;5064786;28;20183;-59
2021/04/21 01:47:14;;;;;;;0.10;0.10;;;;;;;;;;5062176;28;20186;-59
2021/04/21 01:49:48;;;;;;;3.73;1.33;;;;;;;;;;5061364;28;20186;-59
2021/04/21 01:52:33;;;;;;;0.10;0.10;;;;;;;;;;5058850;28;20264;-59
2021/04/21 01:55:03;;;;;;;1.33;0.97;;;;;;;;;;5049588;28;20199;-59
2021/04/21 01:57:48;;;;;;;3.57;1.40;;;;;;;;;;5058253;28;20470;-59
2021/04/21 02:00:20;;;;;;;1.03;0.60;;;;;;;;;;5055959;28;20292;-59
2021/04/21 02:02:54;;;;;;;0.20;0.20;;;;;;;;;;5063470;28;20251;-60
2021/04/21 02:05:24;;;;;;;14.33;0.60;;;;;;;;;;5057614;28;20198;-59
2021/04/21 02:07:53;;;;;;;0.83;0.53;;;;;;;;;;5058608;28;20912;-59
2021/04/21 02:10:27;;;;;;;0.67;0.67;;;;;;;;;;5054095;28;20184;-59
2021/04/21 02:13:05;;;;;;;0.30;0.30;;;;;;;;;;5062494;28;20316;-59
2021/04/21 02:15:38;;;;;;;7.63;3.50;;;;;;;;;;5053223;28;20179;-59
2021/04/21 02:18:23;;;;;;;0.43;0.43;;;;;;;;;;5049768;28;20238;-60
2021/04/21 02:20:52;;;;;;;2.63;2.17;;;;;;;;;;5059456;28;20231;-60
2021/04/21 02:23:33;;;;;;;0.00;0.00;;;;;;;;;;5068655;28;20185;-60
2021/04/21 02:26:05;;;;;;;0.50;0.50;;;;;;;;;;5061454;28;20731;-61
2021/04/21 02:28:43;;;;;;;0.00;0.00;;;;;;;;;;5058230;28;20771;-61
2021/04/21 02:31:14;;;;;;;0.90;0.60;;;;;;;;;;5059404;28;20297;-61
2021/04/21 02:34:00;;;;;;;0.10;0.10;;;;;;;;;;5065440;28;20782;-61
2021/04/21 02:36:35;;;;;;;0.43;0.37;;;;;;;;;;5057869;28;20727;-61
2021/04/21 02:39:08;;;;;;;0.87;0.87;;;;;;;;;;5057685;28;20544;-61
2021/04/21 02:41:42;;;;;;;0.37;0.37;;;;;;;;;;5055405;28;20214;-61
2021/04/21 02:44:18;;;;;;;0.10;0.10;;;;;;;;;;5056583;28;20205;-61
2021/04/21 02:47:07;;;;;;;0.33;0.33;;;;;;;;;;5060763;28;20175;-61
2021/04/21 02:49:45;;;;;;;9.53;3.40;;;;;;;;;;5045738;28;20276;-61
2021/04/21 02:52:17;;;;;;;6.13;1.63;;;;;;;;;;5056944;28;20337;-61
2021/04/21 02:54:53;;;;;;;0.07;0.07;;;;;;;;;;5056570;28;20876;-61
2021/04/21 02:57:24;;;;;;;3.40;3.20;;;;;;;;;;5054686;28;20255;-61
2021/04/21 02:59:57;;;;;;;0.20;0.20;;;;;;;;;;5053535;28;20735;-61
2021/04/21 03:02:23;;;;;;;0.60;0.60;;;;;;;;;;5052578;28;20692;-61
2021/04/21 03:04:57;;;;;;;1.93;0.77;;;;;;;;;;5056189;28;20585;-61
2021/04/21 03:07:32;;;;;;;0.20;0.20;;;;;;;;;;5058912;28;20190;-61
2021/04/21 03:10:00;;;;;;;0.10;0.10;;;;;;;;;;5057976;28;20218;-61
2021/04/21 03:12:28;;;;;;;0.10;0.10;;;;;;;;;;5056511;28;20499;-61
2021/04/21 03:15:12;;;;;;;0.60;0.40;;;;;;;;;;5066032;28;20193;-61
2021/04/21 03:17:39;;;;;;;3.03;1.87;;;;;;;;;;5071303;28;20179;-60
2021/04/21 03:20:16;;;;;;;4.17;1.13;;;;;;;;;;5058731;28;20198;-61
2021/04/21 03:22:48;;;;;;;0.43;0.43;;;;;;;;;;5055292;28;20187;-60
2021/04/21 03:25:35;;;;;;;1.70;1.60;;;;;;;;;;5065765;28;20275;-61
2021/04/21 03:28:04;;;;;;;7.90;3.07;;;;;;;;;;5060582;28;20651;-61
2021/04/21 03:30:32;;;;;;;0.30;0.30;;;;;;;;;;5066772;28;20183;-60
2021/04/21 03:33:09;;;;;;;7.63;1.27;;;;;;;;;;5065611;28;20222;-60
2021/04/21 03:35:36;;;;;;;2.47;1.00;;;;;;;;;;5062619;28;20185;-60
2021/04/21 03:38:05;;;;;;;2.43;1.00;;;;;;;;;;5069702;28;20197;-60
2021/04/21 03:40:33;;;;;;;0.00;0.00;;;;;;;;;;5059159;28;20198;-60
2021/04/21 03:43:00;;;;;;;0.10;0.10;;;;;;;;;;5064314;28;20761;-60
2021/04/21 03:45:27;;;;;;;0.00;0.00;;;;;;;;;;5063607;28;20270;-60
2021/04/21 03:47:56;;;;;;;0.00;0.00;;;;;;;;;;5064124;28;20187;-60
2021/04/21 03:50:23;;;;;;;0.10;0.10;;;;;;;;;;5060709;28;20198;-61
2021/04/21 03:52:57;;;;;;;0.23;0.23;;;;;;;;;;5059339;28;20886;-61
2021/04/21 03:55:24;;;;;;;5.10;0.50;;;;;;;;;;5058011;28;20711;-61
2021/04/21 03:57:51;;;;;;;1.03;0.50;;;;;;;;;;5062408;28;20194;-60
2021/04/21 04:00:18;;;;;;;0.93;0.30;;;;;;;;;;5057078;28;20273;-60
2021/04/21 04:02:50;;;;;;;0.30;0.30;;;;;;;;;;5057336;28;20331;-61
2021/04/21 04:05:19;;;;;;;0.27;0.27;;;;;;;;;;5067125;28;20179;-60
2021/04/21 04:07:46;;;;;;;0.17;0.17;;;;;;;;;;5060398;28;21562;-60
2021/04/21 04:10:15;;;;;;;0.10;0.10;;;;;;;;;;5062117;28;20195;-60
2021/04/21 04:12:45;;;;;;;0.33;0.33;;;;;;;;;;5069089;28;20198;-60
2021/04/21 04:15:13;;;;;;;0.10;0.10;;;;;;;;;;5076456;28;20292;-61
2021/04/21 04:17:44;;;;;;;0.33;0.33;;;;;;;;;;5064131;28;20201;-61
2021/04/21 04:20:13;;;;;;;0.10;0.10;;;;;;;;;;5072378;28;20202;-61
2021/04/21 04:22:43;;;;;;;0.30;0.30;;;;;;;;;;5064370;28;20204;-60
2021/04/21 04:25:10;;;;;;;3.77;1.43;;;;;;;;;;5067491;28;20690;-60
2021/04/21 04:27:38;;;;;;;0.40;0.23;;;;;;;;;;5068719;28;20722;-60
2021/04/21 04:30:05;;;;;;;0.27;0.27;;;;;;;;;;5057813;28;20198;-60
2021/04/21 04:32:32;;;;;;;2.30;1.07;;;;;;;;;;5065176;28;20278;-60
2021/04/21 04:34:59;;;;;;;2.17;1.13;;;;;;;;;;5063116;28;20647;-60
2021/04/21 04:37:29;;;;;;;0.73;0.73;;;;;;;;;;5049591;28;20187;-60
2021/04/21 04:39:56;;;;;;;0.20;0.20;;;;;;;;;;5065071;28;20190;-60
2021/04/21 04:42:23;;;;;;;0.23;0.23;;;;;;;;;;5064976;28;20202;-60
2021/04/21 04:44:50;;;;;;;3.00;2.30;;;;;;;;;;5061781;28;20193;-60
2021/04/21 04:47:29;;;;;;;0.10;0.10;;;;;;;;;;5061131;28;20190;-60
2021/04/21 04:50:15;;;;;;;1.17;1.07;;;;;;;;;;5058417;28;20178;-60
2021/04/21 04:52:44;;;;;;;4.40;1.23;;;;;;;;;;5062811;28;20193;-61
2021/04/21 04:55:12;;;;;;;0.10;0.10;;;;;;;;;;5058387;28;20178;-60
2021/04/21 04:57:40;;;;;;;0.10;0.10;;;;;;;;;;5059142;28;20241;-60
2021/04/21 05:00:17;;;;;;;5.53;0.73;;;;;;;;;;5059779;28;20207;-61
2021/04/21 05:02:49;;;;;;;0.40;0.40;;;;;;;;;;5067209;28;20254;-61
2021/04/21 05:05:17;;;;;;;0.10;0.10;;;;;;;;;;5063608;28;20209;-61
2021/04/21 05:07:53;;;;;;;1.47;1.30;;;;;;;;;;5055228;28;20193;-61
2021/04/21 05:10:27;;;;;;;0.13;0.13;;;;;;;;;;5056913;28;20277;-61
2021/04/21 05:12:57;;;;;;;0.10;0.10;;;;;;;;;;5058782;28;20198;-61
2021/04/21 05:15:35;;;;;;;0.57;0.57;;;;;;;;;;5059327;28;20317;-61
2021/04/21 05:18:20;;;;;;;0.00;0.00;;;;;;;;;;5060446;28;20726;-61
2021/04/21 05:21:06;;;;;;;0.10;0.10;;;;;;;;;;5065757;28;20261;-61
2021/04/21 05:23:57;;;;;;;0.67;0.43;;;;;;;;;;5061148;28;20194;-61
2021/04/21 05:26:42;;;;;;;0.00;0.00;;;;;;;;;;5061919;28;21919;-61
2021/04/21 05:29:16;;;;;;;0.10;0.10;;;;;;;;;;5063989;28;20239;-61
2021/04/21 05:32:03;;;;;;;1.43;1.43;;;;;;;;;;5062519;28;20227;-61
2021/04/21 05:34:49;;;;;;;6.80;0.93;;;;;;;;;;5062066;28;20186;-61
2021/04/21 05:37:34;;;;;;;0.10;0.10;;;;;;;;;;5066225;28;20189;-61
2021/04/21 05:40:20;;;;;;;0.30;0.30;;;;;;;;;;5066441;28;20287;-60
2021/04/21 05:42:56;;;;;;;0.10;0.10;;;;;;;;;;5061649;28;20189;-60
2021/04/21 05:45:36;;;;;;;0.10;0.10;;;;;;;;;;5065753;28;20473;-61
2021/04/21 05:48:20;;;;;;;5.80;5.30;;;;;;;;;;5060537;28;20193;-60
2021/04/21 05:50:58;;;;;;;0.10;0.10;;;;;;;;;;5061169;28;20794;-60
2021/04/21 05:53:29;;;;;;;0.30;0.30;;;;;;;;;;5059237;28;20189;-61
2021/04/21 05:56:22;;;;;;;3.53;2.93;;;;;;;;;;5060343;28;20175;-60
2021/04/21 05:58:55;;;;;;;0.23;0.23;;;;;;;;;;5060321;28;20657;-61
2021/04/21 06:01:23;;;;;;;0.03;0.03;;;;;;;;;;5061171;28;20203;-60
2021/04/21 06:03:57;;;;;;;3.40;2.47;;;;;;;;;;5070975;28;20214;-61
2021/04/21 06:06:24;;;;;;;0.10;0.10;;;;;;;;;;5057648;28;20183;-61
2021/04/21 06:08:51;;;;;;;0.10;0.10;;;;;;;;;;5061611;28;20178;-61
2021/04/21 06:11:22;;;;;;;0.10;0.10;;;;;;;;;;5068525;28;20652;-60
2021/04/21 06:14:08;;;;;;;0.10;0.10;;;;;;;;;;5059392;28;20666;-61
2021/04/21 06:16:37;;;;;;;0.47;0.47;;;;;;;;;;5066227;28;20237;-61
2021/04/21 06:19:06;;;;;;;8.40;0.87;;;;;;;;;;5067237;28;20723;-61
2021/04/21 06:21:37;;;;;;;0.43;0.30;;;;;;;;;;5068052;28;20861;-61
2021/04/21 06:24:20;;;;;;;0.20;0.20;;;;;;;;;;5070107;28;20240;-61
2021/04/21 06:26:46;;;;;;;0.30;0.30;;;;;;;;;;5070385;28;21953;-61
2021/04/21 06:29:13;;;;;;;1.07;0.97;;;;;;;;;;5069593;28;20179;-60
2021/04/21 06:31:43;;;;;;;1.23;1.10;;;;;;;;;;5071970;28;20186;-60
2021/04/21 06:34:11;;;;;;;0.10;0.10;;;;;;;;;;5070597;28;20272;-61
2021/04/21 06:36:41;;;;;;;1.97;1.63;;;;;;;;;;5064337;28;20213;-61
2021/04/21 06:39:10;;;;;;;0.73;0.53;;;;;;;;;;5067224;28;20198;-60
2021/04/21 06:41:36;;;;;;;2.33;1.10;;;;;;;;;;5066524;28;20210;-60
2021/04/21 06:44:04;;;;;;;1.80;0.93;;;;;;;;;;5063075;28;20179;-60
2021/04/21 06:46:31;;;;;;;0.10;0.10;;;;;;;;;;5074794;28;20181;-61
2021/04/21 06:48:59;;;;;;;0.10;0.10;;;;;;;;;;5074198;28;20181;-61
2021/04/21 06:51:27;;;;;;;0.10;0.10;;;;;;;;;;5062857;28;20265;-61
2021/04/21 06:53:54;;;;;;;0.40;0.40;;;;;;;;;;5048581;28;20221;-61
2021/04/21 06:56:28;;;;;;;0.40;0.40;;;;;;;;;;5067713;28;20224;-61
2021/04/21 06:58:54;;;;;;;0.20;0.20;;;;;;;;;;5060927;28;20289;-61
2021/04/21 07:01:29;;;;;;;0.10;0.10;;;;;;;;;;5061164;28;20458;-60
2021/04/21 07:04:13;;;;;;;0.43;0.43;;;;;;;;;;5060430;28;20677;-60
2021/04/21 07:06:41;;;;;;;0.10;0.10;;;;;;;;;;5065930;28;20801;-60
2021/04/21 07:09:17;;;;;;;0.20;0.20;;;;;;;;;;5068039;28;20194;-60
2021/04/21 07:11:47;;;;;;;8.20;7.23;;;;;;;;;;5063911;28;21000;-60
2021/04/21 07:14:18;;;;;;;0.97;0.57;;;;;;;;;;5072765;28;20731;-60
2021/04/21 07:16:44;;;;;;;0.30;0.30;;;;;;;;;;5064743;28;20885;-60
2021/04/21 07:19:12;;;;;;;0.10;0.10;;;;;;;;;;5063364;28;20194;-60
2021/04/21 07:21:40;;;;;;;0.10;0.10;;;;;;;;;;5066366;28;20770;-60
2021/04/21 07:24:07;;;;;;;0.10;0.10;;;;;;;;;;5066396;28;20194;-60
2021/04/21 07:26:39;;;;;;;0.93;0.93;;;;;;;;;;5060993;28;20183;-60
2021/04/21 07:29:07;;;;;;;0.63;0.63;;;;;;;;;;5064016;28;20189;-60
2021/04/21 07:31:38;;;;;;;0.20;0.20;;;;;;;;;;5058154;28;20709;-60
2021/04/21 07:34:07;;;;;;;10.67;1.07;;;;;;;;;;5057244;28;20758;-60
2021/04/21 07:36:43;;;;;;;0.67;0.53;;;;;;;;;;5063915;28;20190;-60
2021/04/21 07:39:10;;;;;;;1.03;1.03;;;;;;;;;;5069006;28;20953;-60
2021/04/21 07:41:44;;;;;;;2.33;1.07;;;;;;;;;;5074289;28;20221;-60
2021/04/21 07:44:29;;;;;;;0.10;0.10;;;;;;;;;;5064389;28;20631;-60
2021/04/21 07:47:06;;;;;;;0.07;0.07;;;;;;;;;;5065652;28;20235;-60
2021/04/21 07:49:35;;;;;;;6.40;1.37;;;;;;;;;;5064883;28;20702;-60
2021/04/21 07:52:01;;;;;;;0.10;0.10;;;;;;;;;;5062565;28;20720;-60
2021/04/21 07:54:30;;;;;;;0.10;0.10;;;;;;;;;;5063130;28;20272;-60
2021/04/21 07:56:58;;;;;;;8.30;0.67;;;;;;;;;;5060957;28;20341;-60
2021/04/21 07:59:28;;;;;;;0.00;0.00;;;;;;;;;;5060655;28;20182;-60
2021/04/21 08:02:00;;;;;;;0.10;0.10;;;;;;;;;;5061715;28;20297;-60
2021/04/21 08:04:27;;;;;;;0.30;0.30;;;;;;;;;;5061170;28;20185;-60
2021/04/21 08:06:57;;;;;;;9.53;1.63;;;;;;;;;;5071703;28;20526;-60
2021/04/21 08:09:26;;;;;;;0.10;0.10;;;;;;;;;;5070991;28;20186;-60
2021/04/21 08:12:13;;;;;;;0.43;0.43;;;;;;;;;;5067044;28;20221;-60
2021/04/21 08:14:41;;;;;;;0.10;0.10;;;;;;;;;;5072694;28;20192;-60
2021/04/21 08:17:09;;;;;;;0.10;0.10;;;;;;;;;;5072190;28;20607;-61
2021/04/21 08:19:38;;;;;;;5.57;1.70;;;;;;;;;;5068027;28;20244;-61
2021/04/21 08:22:05;;;;;;;27.23;2.33;;;;;;;;;;5071893;28;20232;-61
2021/04/21 08:24:52;;;;;;;1.40;1.30;;;;;;;;;;5060232;28;20188;-61
2021/04/21 08:27:19;;;;;;;0.67;0.30;;;;;;;;;;5056172;28;20181;-61
2021/04/21 08:29:46;;;;;;;0.67;0.67;;;;;;;;;;5070481;28;20222;-61
2021/04/21 08:32:19;;;;;;;0.10;0.10;;;;;;;;;;5058651;28;20510;-61
2021/04/21 08:34:53;;;;;;;0.27;0.20;;;;;;;;;;5064598;28;20198;-61
2021/04/21 08:37:20;;;;;;;4.80;1.50;;;;;;;;;;5061567;28;20189;-61
2021/04/21 08:39:47;;;;;;;0.03;0.03;;;;;;;;;;5061272;28;20197;-61
2021/04/21 08:42:14;;;;;;;0.47;0.47;;;;;;;;;;5070436;28;21174;-61
2021/04/21 08:44:42;;;;;;;0.20;0.20;;;;;;;;;;5066136;28;20190;-61
2021/04/21 08:47:10;;;;;;;0.10;0.10;;;;;;;;;;5038660;28;20532;-61
2021/04/21 08:49:39;;;;;;;0.80;0.80;;;;;;;;;;5059521;28;20186;-60
2021/04/21 08:52:06;;;;;;;6.37;3.10;;;;;;;;;;5062345;28;20426;-60
2021/04/21 08:54:33;;;;;;;1.40;1.03;;;;;;;;;;5063905;28;20190;-60
2021/04/21 08:57:01;;;;;;;0.00;0.00;;;;;;;;;;5059076;28;20237;-60
2021/04/21 08:59:28;;;;;;;1.17;1.17;;;;;;;;;;5058416;28;20193;-60
2021/04/21 09:01:55;;;;;;;0.93;0.93;;;;;;;;;;5066217;28;20731;-60
2021/04/21 09:04:22;;;;;;;0.77;0.77;;;;;;;;;;5065415;28;20262;-61
2021/04/21 09:06:48;;;;;;;0.10;0.10;;;;;;;;;;5065176;28;20182;-61
2021/04/21 09:09:17;;;;;;;1.60;1.50;;;;;;;;;;5059227;28;20185;-61
2021/04/21 09:11:43;;;;;;;7.73;1.13;;;;;;;;;;5060132;28;20961;-61
2021/04/21 09:14:10;;;;;;;2.03;1.43;;;;;;;;;;5064609;28;20567;-61
2021/04/21 09:16:38;;;;;;;1.90;1.20;;;;;;;;;;5071224;28;20188;-61
2021/04/21 09:19:09;;;;;;;5.97;3.70;;;;;;;;;;5067462;28;20540;-60
2021/04/21 09:21:38;;;;;;;0.73;0.73;;;;;;;;;;5061380;28;20389;-60
2021/04/21 09:24:05;;;;;;;5.80;1.30;;;;;;;;;;5069515;28;20292;-60
2021/04/21 09:26:34;;;;;;;0.10;0.10;;;;;;;;;;5059220;28;20201;-60
2021/04/21 09:29:01;;;;;;;1.23;0.30;;;;;;;;;;5061982;28;20193;-60
2021/04/21 09:31:29;;;;;;;0.43;0.40;;;;;;;;;;5059924;28;20182;-60
2021/04/21 09:34:10;;;;;;;9.10;1.40;;;;;;;;;;5060691;28;20197;-60
2021/04/21 09:36:38;;;;;;;0.10;0.10;;;;;;;;;;5056183;28;20196;-60
2021/04/21 09:39:10;;;;;;;1.57;0.60;;;;;;;;;;5066701;28;20186;-60
2021/04/21 09:41:37;;;;;;;0.03;0.03;;;;;;;;;;5061233;28;20217;-60
2021/04/21 09:44:16;;;;;;;1.57;1.20;;;;;;;;;;5063302;28;20915;-60
2021/04/21 09:46:44;;;;;;;0.87;0.80;;;;;;;;;;5041744;28;20636;-60
2021/04/21 09:49:30;;;;;;;0.60;0.60;;;;;;;;;;5062379;28;20729;-60
2021/04/21 09:51:57;;;;;;;15.17;0.53;;;;;;;;;;5061436;28;20281;-60
2021/04/21 09:54:31;;;;;;;0.10;0.10;;;;;;;;;;5065666;28;20187;-60
2021/04/21 09:57:07;;;;;;;2.53;2.00;;;;;;;;;;5068912;28;20214;-60
2021/04/21 09:59:34;;;;;;;0.30;0.30;;;;;;;;;;5060498;28;20170;-60
2021/04/21 10:02:00;;;;;;;0.00;0.00;;;;;;;;;;5062941;28;20957;-60
2021/04/21 10:04:28;;;;;;;0.03;0.03;;;;;;;;;;5058693;28;20190;-60
2021/04/21 10:06:57;;;;;;;0.10;0.10;;;;;;;;;;5059480;28;20178;-61
2021/04/21 10:09:33;;;;;;;0.23;0.23;;;;;;;;;;5061535;28;20509;-60
2021/04/21 10:12:18;;;;;;;4.93;0.47;;;;;;;;;;5061165;28;20182;-61
2021/04/21 13:01:39;;;;;;;1.30;0.40;;;;;;;;;;5048386;28;20948;-58
2021/04/21 13:04:06;;;;;;;1.13;1.13;;;;;;;;;;5054087;28;20189;-58
2021/04/21 13:06:36;;;;;;;8.73;5.50;;;;;;;;;;5035304;28;20590;-58
2021/04/21 13:09:04;;;;;;;1.27;1.07;;;;;;;;;;5035517;28;20695;-58
2021/04/21 13:11:31;;;;;;;0.00;0.00;;;;;;;;;;5034840;28;20188;-57
2021/04/21 13:13:58;;;;;;;0.00;0.00;;;;;;;;;;5035160;28;20220;-57
2021/04/21 13:16:28;;;;;;;6.70;2.37;;;;;;;;;;5034972;28;20542;-58
2021/04/21 13:18:55;;;;;;;3.90;1.30;;;;;;;;;;5035313;28;20187;-58
2021/04/21 13:21:21;;;;;;;0.10;0.10;;;;;;;;;;5034790;28;20647;-58
2021/04/21 13:23:52;;;;;;;2.17;0.80;;;;;;;;;;5035294;28;20693;-57
2021/04/21 13:26:19;;;;;;;8.30;0.97;;;;;;;;;;5035128;28;20246;-57
2021/04/21 13:28:50;;;;;;;0.30;0.30;;;;;;;;;;5034727;28;20175;-58
2021/04/21 13:31:17;;;;;;;0.53;0.53;;;;;;;;;;5033258;28;20178;-58
2021/04/21 13:33:44;;;;;;;0.30;0.30;;;;;;;;;;5034608;28;20191;-58
2021/04/21 13:36:12;;;;;;;0.63;0.10;;;;;;;;;;5035846;28;20190;-57
2021/04/21 13:38:40;;;;;;;0.63;0.40;;;;;;;;;;5037391;28;20913;-58
2021/04/21 13:41:07;;;;;;;2.37;0.67;;;;;;;;;;5034670;28;20245;-57
2021/04/21 13:43:33;;;;;;;2.53;0.50;;;;;;;;;;5033183;28;20211;-58
2021/04/21 13:46:00;;;;;;;0.27;0.27;;;;;;;;;;5037699;28;20179;-57
2021/04/21 13:48:27;;;;;;;0.83;0.37;;;;;;;;;;5050142;28;22261;-57
2021/04/21 13:50:54;;;;;;;2.63;0.63;;;;;;;;;;5034257;28;20184;-57
2021/04/21 13:53:20;;;;;;;11.70;5.50;;;;;;;;;;5045327;28;20759;-57
2021/04/21 13:55:47;;;;;;;0.67;0.67;;;;;;;;;;5034463;28;20199;-57
2021/04/21 13:58:13;;;;;;;0.00;0.00;;;;;;;;;;5034585;28;20269;-59
2021/04/21 14:00:41;;;;;;;0.70;0.70;;;;;;;;;;5033416;28;20317;-59
2021/04/21 14:03:08;;;;;;;0.17;0.17;;;;;;;;;;5047394;28;20179;-59
2021/04/21 14:05:35;;;;;;;0.93;0.93;;;;;;;;;;5040823;28;20656;-59
2021/04/21 14:08:02;;;;;;;5.00;2.00;;;;;;;;;;5034107;28;20180;-59
2021/04/21 14:10:28;;;;;;;0.00;0.00;;;;;;;;;;5032849;28;20204;-59
2021/04/21 14:12:55;;;;;;;4.30;0.63;;;;;;;;;;5020185;28;20289;-58
2021/04/21 14:15:22;;;;;;;0.00;0.00;;;;;;;;;;5018686;28;20191;-58
2021/04/21 14:17:49;;;;;;;0.00;0.00;;;;;;;;;;5030312;28;20224;-59
2021/04/21 14:20:16;;;;;;;2.10;0.60;;;;;;;;;;5022363;28;20219;-58
2021/04/21 14:22:46;;;;;;;6.07;0.67;;;;;;;;;;5025364;28;20181;-58
2021/04/21 14:25:14;;;;;;;0.03;0.03;;;;;;;;;;5040001;28;20188;-58
2021/04/21 14:27:41;;;;;;;0.93;0.47;;;;;;;;;;5028968;28;20376;-59
2021/04/21 14:30:08;;;;;;;0.40;0.13;;;;;;;;;;5034187;28;20176;-59
2021/04/21 14:32:35;;;;;;;0.20;0.20;;;;;;;;;;5023054;28;20449;-59
2021/04/21 14:35:02;;;;;;;0.13;0.13;;;;;;;;;;5033972;28;20538;-57
2021/04/21 14:37:29;;;;;;;3.77;0.80;;;;;;;;;;5018596;28;20191;-57
2021/04/21 14:39:56;;;;;;;0.00;0.00;;;;;;;;;;5021309;28;20207;-56
2021/04/21 14:42:22;;;;;;;3.30;0.10;;;;;;;;;;5031822;28;20191;-57
2021/04/21 14:44:49;;;;;;;2.33;0.63;;;;;;;;;;5020681;28;20183;-57
2021/04/21 14:47:15;;;;;;;2.83;0.67;;;;;;;;;;5022020;28;20185;-56
2021/04/21 14:49:42;;;;;;;5.90;1.07;;;;;;;;;;5020757;28;20190;-57
2021/04/21 14:52:08;;;;;;;1.67;0.63;;;;;;;;;;5018486;28;20191;-57
2021/04/21 14:54:35;;;;;;;9.77;4.40;;;;;;;;;;5025017;28;20676;-57
2021/04/21 14:57:03;;;;;;;0.10;0.07;;;;;;;;;;5017703;28;20196;-57
2021/04/21 14:59:29;;;;;;;1.53;0.53;;;;;;;;;;5015337;28;20699;-57
2021/04/21 15:01:56;;;;;;;0.57;0.50;;;;;;;;;;5038424;28;20179;-57
2021/04/21 15:04:22;;;;;;;0.77;0.57;;;;;;;;;;5016383;28;20600;-57
2021/04/21 15:06:51;;;;;;;1.67;0.77;;;;;;;;;;5017264;28;20603;-58
2021/04/21 15:09:18;;;;;;;1.60;0.60;;;;;;;;;;5011033;28;20187;-57
2021/04/21 15:11:46;;;;;;;21.33;2.13;;;;;;;;;;5023348;28;20273;-57
2021/04/21 15:14:13;;;;;;;0.00;0.00;;;;;;;;;;5024420;28;20810;-57
2021/04/21 15:16:42;;;;;;;1.90;0.73;;;;;;;;;;5028737;28;20598;-58
2021/04/21 15:19:13;;;;;;;0.20;0.20;;;;;;;;;;5022937;28;20196;-58
2021/04/21 15:21:40;;;;;;;0.77;0.47;;;;;;;;;;5028389;28;20299;-58
2021/04/21 15:24:06;;;;;;;2.67;1.30;;;;;;;;;;5022146;28;20191;-58
2021/04/21 15:26:37;;;;;;;6.33;0.57;;;;;;;;;;5019847;28;20181;-57
2021/04/21 15:29:04;;;;;;;3.50;1.67;;;;;;;;;;5020955;28;20277;-58
2021/04/21 15:31:32;;;;;;;10.03;9.10;;;;;;;;;;5019597;28;20195;-58
2021/04/21 15:34:00;;;;;;;0.40;0.40;;;;;;;;;;5018532;28;20188;-58
2021/04/21 15:36:27;;;;;;;0.50;0.10;;;;;;;;;;5028013;28;20698;-58
2021/04/21 15:38:54;;;;;;;0.47;0.17;;;;;;;;;;5024493;28;20215;-58
2021/04/21 15:41:21;;;;;;;0.30;0.30;;;;;;;;;;5039103;28;20628;-58
2021/04/21 15:43:48;;;;;;;1.30;0.47;;;;;;;;;;5027599;28;20290;-58
2021/04/21 15:46:15;;;;;;;0.83;0.53;;;;;;;;;;5027161;28;20574;-58
2021/04/21 15:48:42;;;;;;;4.20;1.47;;;;;;;;;;5033621;28;20191;-58
2021/04/21 15:51:09;;;;;;;1.90;0.67;;;;;;;;;;5019576;28;20203;-58
2021/04/21 15:53:37;;;;;;;1.93;0.37;;;;;;;;;;5024800;28;20186;-58
2021/04/21 15:56:05;;;;;;;0.63;0.63;;;;;;;;;;5028643;28;20258;-58
2021/04/21 15:58:32;;;;;;;0.83;0.40;;;;;;;;;;5026894;28;20639;-58
2021/04/21 16:01:04;;;;;;;0.00;0.00;;;;;;;;;;5031345;28;20919;-58
2021/04/21 16:03:31;;;;;;;0.70;0.50;;;;;;;;;;5025535;28;20183;-58
2021/04/21 16:05:58;;;;;;;0.50;0.50;;;;;;;;;;5013616;28;20207;-58
2021/04/21 16:08:25;;;;;;;0.80;0.80;;;;;;;;;;5019048;28;20192;-58
2021/04/21 16:10:52;;;;;;;1.03;0.30;;;;;;;;;;5018582;28;20180;-58
2021/04/21 16:13:19;;;;;;;0.20;0.20;;;;;;;;;;5020009;28;20215;-58
2021/04/21 16:15:46;;;;;;;0.00;0.00;;;;;;;;;;5020904;28;20186;-58
2021/04/21 16:18:13;;;;;;;0.50;0.50;;;;;;;;;;5020277;28;20194;-58
2021/04/21 16:20:40;;;;;;;0.30;0.30;;;;;;;;;;5028619;28;20204;-58
2021/04/21 16:23:06;;;;;;;0.70;0.43;;;;;;;;;;5019972;28;20738;-58
2021/04/21 16:25:33;;;;;;;7.27;2.57;;;;;;;;;;5025869;28;20185;-57
2021/04/21 16:27:59;;;;;;;0.00;0.00;;;;;;;;;;5022014;28;20577;-58
2021/04/21 16:30:26;;;;;;;1.40;1.37;;;;;;;;;;5018835;28;20192;-58
2021/04/21 16:32:53;;;;;;;1.20;0.60;;;;;;;;;;5019000;28;20194;-57
2021/04/21 16:35:20;;;;;;;5.33;0.63;;;;;;;;;;5023839;28;20624;-58
2021/04/21 16:37:47;;;;;;;2.40;1.27;;;;;;;;;;5018422;28;20462;-58
2021/04/21 16:40:14;;;;;;;0.07;0.07;;;;;;;;;;5020788;28;20203;-58
2021/04/21 16:42:40;;;;;;;1.23;1.00;;;;;;;;;;5019103;28;20566;-58
2021/04/21 16:45:08;;;;;;;0.63;0.63;;;;;;;;;;5019453;28;20485;-64
2021/04/21 16:47:35;;;;;;;4.47;0.43;;;;;;;;;;5019139;28;20227;-64
2021/04/21 16:50:01;;;;;;;0.10;0.10;;;;;;;;;;5021409;28;20675;-64
2021/04/21 16:52:28;;;;;;;1.60;1.50;;;;;;;;;;5018479;28;20575;-64
2021/04/21 16:54:55;;;;;;;3.93;0.77;;;;;;;;;;5018613;28;20628;-64
2021/04/21 16:57:22;;;;;;;4.33;0.73;;;;;;;;;;5038018;28;20183;-64
2021/04/21 16:59:51;;;;;;;0.90;0.43;;;;;;;;;;5028722;28;20271;-64
2021/04/21 17:02:17;;;;;;;1.47;0.90;;;;;;;;;;5018682;28;20279;-64
2021/04/21 17:04:45;;;;;;;0.30;0.30;;;;;;;;;;5014146;28;20592;-64
2021/04/21 17:07:12;;;;;;;7.17;1.67;;;;;;;;;;5023379;28;20173;-64
2021/04/21 17:09:38;;;;;;;0.20;0.20;;;;;;;;;;5018606;28;20191;-64
2021/04/21 17:12:05;;;;;;;0.23;0.23;;;;;;;;;;5015239;28;20506;-64
2021/04/21 17:14:32;;;;;;;9.13;1.13;;;;;;;;;;5020052;28;20188;-64
2021/04/21 17:16:58;;;;;;;1.10;0.73;;;;;;;;;;5028096;28;20210;-64
2021/04/21 17:19:26;;;;;;;3.53;1.37;;;;;;;;;;5026883;28;20280;-64
2021/04/21 17:21:53;;;;;;;2.20;0.70;;;;;;;;;;5021652;28;20873;-65
2021/04/21 17:24:24;;;;;;;1.10;1.03;;;;;;;;;;5018532;28;20191;-64
2021/04/21 17:26:51;;;;;;;5.20;0.87;;;;;;;;;;5020120;28;20596;-64
2021/04/21 17:29:18;;;;;;;0.50;0.40;;;;;;;;;;5021253;28;20190;-64
2021/04/21 17:31:45;;;;;;;0.73;0.57;;;;;;;;;;5037940;28;20624;-63
2021/04/21 17:34:12;;;;;;;1.23;0.23;;;;;;;;;;5021022;28;20181;-64
2021/04/21 17:36:42;;;;;;;6.10;0.53;;;;;;;;;;5029545;28;20857;-64
2021/04/21 17:39:09;;;;;;;0.00;0.00;;;;;;;;;;5029586;28;20233;-64
2021/04/21 17:41:36;;;;;;;1.93;0.70;;;;;;;;;;5019783;28;20941;-64
2021/04/21 17:44:03;;;;;;;4.53;1.17;;;;;;;;;;5021098;28;20646;-64
2021/04/21 17:46:29;;;;;;;0.50;0.33;;;;;;;;;;5032032;28;20191;-64
2021/04/21 17:48:56;;;;;;;0.73;0.40;;;;;;;;;;5023876;28;20175;-64